Time;durP1;ratioP1;P1;durP2;ratioP2;P2;SDS_P1;SDS_P2;PMS_P1;PMS_P2;Temp;Humidity;BMP_temperature;BMP_pressure;BME280_temperature;BME280_humidity;BME280_pressure;Samples;Min_cycle;Max_cycle;Signal;HPM_P1;HPM_P2
2023/01/18 00:02:08;;;;;;;2.85;1.90;;;-2.20;99.90;;;;;;5008396;28;20073;-76
2023/01/18 00:04:34;;;;;;;3.60;2.38;;;-2.20;99.90;;;;;;5015651;28;20099;-76
2023/01/18 00:07:01;;;;;;;2.65;1.83;;;-2.20;99.90;;;;;;5012927;28;20095;-76
2023/01/18 00:09:28;;;;;;;3.38;2.25;;;-2.20;99.90;;;;;;5008368;28;20555;-76
2023/01/18 00:11:54;;;;;;;2.50;1.60;;;-2.30;99.90;;;;;;5010362;28;20103;-76
2023/01/18 00:14:21;;;;;;;3.38;2.17;;;-2.30;99.90;;;;;;4993882;28;20209;-76
2023/01/18 00:16:48;;;;;;;3.72;2.10;;;-2.30;99.90;;;;;;5012404;28;20050;-76
2023/01/18 00:19:15;;;;;;;3.85;1.90;;;-2.30;99.90;;;;;;5011703;28;20658;-76
2023/01/18 00:21:41;;;;;;;2.70;2.00;;;-2.30;99.90;;;;;;5013667;28;20065;-76
2023/01/18 00:24:13;;;;;;;2.42;1.88;;;-2.30;99.90;;;;;;5015058;28;20057;-77
2023/01/18 00:26:41;;;;;;;2.08;1.85;;;-2.30;99.90;;;;;;4992787;28;20057;-76
2023/01/18 00:29:09;;;;;;;2.95;2.00;;;-2.30;99.90;;;;;;5008477;28;20144;-76
2023/01/18 00:31:36;;;;;;;3.03;2.00;;;-2.30;99.90;;;;;;4997547;28;20053;-76
2023/01/18 00:34:03;;;;;;;3.10;1.85;;;-2.30;99.90;;;;;;5013986;28;20155;-76
2023/01/18 00:36:30;;;;;;;2.58;1.80;;;-2.30;99.90;;;;;;5012965;28;20053;-75
2023/01/18 00:38:57;;;;;;;2.78;2.42;;;-2.30;99.90;;;;;;5009747;28;20054;-76
2023/01/18 00:41:24;;;;;;;2.55;1.67;;;-2.30;99.90;;;;;;5014463;28;20137;-76
2023/01/18 00:43:51;;;;;;;2.20;1.38;;;-2.30;99.90;;;;;;5015550;28;20049;-76
2023/01/18 00:46:22;;;;;;;3.20;1.80;;;-2.30;99.90;;;;;;5009788;28;20742;-76
2023/01/18 00:48:50;;;;;;;3.00;1.60;;;-2.30;99.90;;;;;;5010079;28;20076;-76
2023/01/18 00:51:18;;;;;;;2.22;1.65;;;-2.30;99.90;;;;;;5008285;28;20112;-76
2023/01/18 00:53:45;;;;;;;2.03;1.48;;;-2.30;99.90;;;;;;5000874;28;20530;-76
2023/01/18 00:56:14;;;;;;;2.63;1.75;;;-2.20;99.90;;;;;;5016803;28;20042;-76
2023/01/18 00:58:41;;;;;;;2.70;1.60;;;-2.20;99.90;;;;;;5015410;28;20046;-76
2023/01/18 01:01:08;;;;;;;1.48;1.20;;;-2.20;99.90;;;;;;5012828;28;20120;-75
2023/01/18 01:06:43;;;;;;;1.75;1.63;;;-2.20;99.90;;;;;;4999936;28;20049;-76
2023/01/18 01:09:14;;;;;;;1.30;1.20;;;-2.20;99.90;;;;;;5012118;28;20053;-76
2023/01/18 01:12:31;;;;;;;1.67;1.40;;;-2.20;99.90;;;;;;5013677;28;20419;-77
2023/01/18 01:28:14;;;;;;;1.55;0.90;;;-2.30;99.90;;;;;;5010560;28;20523;-76
2023/01/18 01:30:40;;;;;;;1.55;1.10;;;-2.30;99.90;;;;;;5013559;28;20469;-77
2023/01/18 01:33:07;;;;;;;1.10;0.93;;;-2.30;99.90;;;;;;5011512;28;20053;-76
2023/01/18 01:35:34;;;;;;;1.75;1.15;;;-2.30;99.90;;;;;;5013282;28;20080;-76
2023/01/18 01:38:01;;;;;;;1.20;0.95;;;-2.20;99.90;;;;;;5009940;28;20137;-77
2023/01/18 01:40:28;;;;;;;1.67;1.13;;;-2.20;99.90;;;;;;5015432;28;20057;-76
2023/01/18 01:42:55;;;;;;;1.65;1.17;;;-2.30;99.90;;;;;;5014402;28;20051;-76
2023/01/18 01:45:23;;;;;;;1.08;0.82;;;-2.30;99.90;;;;;;5015263;28;20066;-76
2023/01/18 01:47:49;;;;;;;1.48;0.98;;;-2.30;99.90;;;;;;5015275;28;20111;-76
2023/01/18 01:50:19;;;;;;;1.63;1.20;;;-2.30;99.90;;;;;;5010672;28;20056;-76
2023/01/18 01:52:46;;;;;;;1.83;0.98;;;-2.20;99.90;;;;;;4985616;28;20237;-77
2023/01/18 01:55:33;;;;;;;2.17;1.35;;;-2.30;99.90;;;;;;5016414;28;20355;-76
2023/01/18 01:58:09;;;;;;;1.70;1.10;;;-2.30;99.90;;;;;;5015330;28;20528;-77
2023/01/18 02:00:35;;;;;;;1.65;1.30;;;-2.30;99.90;;;;;;5000687;28;20049;-76
2023/01/18 02:03:04;;;;;;;1.38;0.90;;;-2.30;99.90;;;;;;5022847;28;20073;-76
2023/01/18 02:05:32;;;;;;;1.50;1.10;;;-2.30;99.90;;;;;;5015797;28;20133;-76
2023/01/18 02:08:00;;;;;;;1.50;0.90;;;-2.30;99.90;;;;;;5007284;28;20057;-76
2023/01/18 02:10:28;;;;;;;1.00;0.90;;;-2.30;99.90;;;;;;5016916;28;20049;-76
2023/01/18 02:12:55;;;;;;;1.58;0.82;;;-2.30;99.90;;;;;;5018808;28;20060;-76
2023/01/18 02:15:25;;;;;;;1.20;0.82;;;-2.30;99.90;;;;;;5019311;28;20063;-77
2023/01/18 02:18:01;;;;;;;1.25;1.00;;;-2.30;99.90;;;;;;5018813;28;20056;-76
2023/01/18 02:20:47;;;;;;;1.35;1.13;;;-2.20;99.90;;;;;;5015948;28;20052;-76
2023/01/18 02:23:34;;;;;;;1.23;1.00;;;-2.20;99.90;;;;;;5021921;28;20159;-77
2023/01/18 02:26:01;;;;;;;1.52;1.35;;;-2.20;99.90;;;;;;5026339;28;20474;-77
2023/01/18 02:28:36;;;;;;;1.55;0.90;;;-2.20;99.90;;;;;;5019705;28;20473;-77
2023/01/18 02:31:13;;;;;;;0.82;0.70;;;-2.30;99.90;;;;;;5014408;28;20046;-76
2023/01/18 02:33:49;;;;;;;2.25;1.00;;;-2.30;99.90;;;;;;5002515;28;20058;-76
2023/01/18 02:36:39;;;;;;;1.30;1.00;;;-2.30;99.90;;;;;;5015653;28;20061;-76
2023/01/18 02:39:21;;;;;;;2.15;0.90;;;-2.30;99.90;;;;;;5021012;28;20060;-76
2023/01/18 02:47:27;;;;;;;1.10;0.90;;;-2.40;99.90;;;;;;5018902;28;20057;-76
2023/01/18 02:49:58;;;;;;;1.10;1.00;;;-2.40;99.90;;;;;;5019859;28;20072;-76
2023/01/18 02:52:40;;;;;;;1.70;1.00;;;-2.40;99.90;;;;;;5032997;28;20053;-76
2023/01/18 02:55:13;;;;;;;1.70;1.15;;;-2.40;99.90;;;;;;5002844;28;20060;-77
2023/01/18 02:57:39;;;;;;;1.23;0.98;;;-2.50;99.90;;;;;;5002239;28;20140;-76
2023/01/18 03:00:08;;;;;;;3.00;1.33;;;-2.50;99.90;;;;;;5006181;28;20400;-76
2023/01/18 03:02:34;;;;;;;1.42;0.90;;;-2.50;99.90;;;;;;5015799;28;20342;-76
2023/01/18 03:05:02;;;;;;;1.73;1.23;;;-2.50;99.90;;;;;;5023663;28;20135;-77
2023/01/18 03:07:56;;;;;;;1.98;1.25;;;-2.50;99.90;;;;;;5016730;28;20046;-77
2023/01/18 03:10:27;;;;;;;1.52;1.02;;;-2.50;99.90;;;;;;4983607;28;20135;-76
2023/01/18 03:13:23;;;;;;;1.35;0.93;;;-2.50;99.90;;;;;;4983437;28;20049;-76
2023/01/18 03:16:13;;;;;;;1.17;1.00;;;-2.50;99.90;;;;;;5015254;28;20096;-76
2023/01/18 03:19:00;;;;;;;1.17;0.85;;;-2.50;99.90;;;;;;5018993;28;20076;-76
2023/01/18 03:21:33;;;;;;;0.88;0.70;;;-2.60;99.90;;;;;;5014046;28;20514;-76
2023/01/18 03:24:00;;;;;;;1.00;0.90;;;-2.60;99.90;;;;;;5001374;28;20173;-77
2023/01/18 03:26:27;;;;;;;1.05;1.00;;;-2.60;99.90;;;;;;4986875;28;20084;-76
2023/01/18 03:34:47;;;;;;;0.88;0.80;;;-2.60;99.90;;;;;;5015605;28;20144;-76
2023/01/18 03:37:15;;;;;;;;;;;-2.60;99.90;;;;;;5021616;28;20127;-77
2023/01/18 03:39:45;;;;;;;1.20;0.82;;;-2.50;99.90;;;;;;5015139;28;19921;-76
2023/01/18 03:42:17;;;;;;;1.08;0.73;;;-2.50;99.90;;;;;;5018537;28;20048;-76
2023/01/18 03:44:51;;;;;;;1.70;1.20;;;-2.50;99.90;;;;;;5019315;28;20051;-76
2023/01/18 03:47:17;;;;;;;;;;;-2.50;99.90;;;;;;5019063;28;20051;-76
2023/01/18 03:49:44;;;;;;;1.52;1.02;;;-2.50;99.90;;;;;;5012694;28;19921;-76
2023/01/18 03:52:24;;;;;;;1.23;0.93;;;-2.50;99.90;;;;;;4998658;28;20125;-76
2023/01/18 03:55:15;;;;;;;1.75;0.80;;;-2.50;99.90;;;;;;5001102;28;20049;-77
2023/01/18 03:57:59;;;;;;;0.95;0.80;;;-2.40;99.90;;;;;;5020976;28;20503;-76
2023/01/18 04:00:26;;;;;;;;;;;-2.40;99.90;;;;;;5001815;28;20748;-77
2023/01/18 04:02:53;;;;;;;0.80;0.80;;;-2.30;99.90;;;;;;5013957;28;19921;-77
2023/01/18 04:05:19;;;;;;;1.63;0.90;;;-2.30;99.90;;;;;;5013600;28;20084;-76
2023/01/18 04:07:46;;;;;;;2.13;1.20;;;-2.20;99.90;;;;;;5014266;28;20512;-76
2023/01/18 04:10:13;;;;;;;0.90;0.88;;;-2.10;99.90;;;;;;5019540;28;20405;-76
2023/01/18 04:12:40;;;;;;;1.95;1.35;;;-2.00;99.90;;;;;;4998184;28;20108;-76
2023/01/18 04:15:07;;;;;;;1.30;1.02;;;-1.90;99.90;;;;;;5015463;28;20140;-77
2023/01/18 04:17:33;;;;;;;1.50;1.10;;;-1.80;99.90;;;;;;5022540;28;20049;-77
2023/01/18 04:20:00;;;;;;;1.58;1.00;;;-1.80;99.90;;;;;;5017757;28;20132;-76
2023/01/18 04:22:27;;;;;;;1.95;1.17;;;-1.70;99.90;;;;;;5016316;28;20088;-76
2023/01/18 04:24:54;;;;;;;2.60;1.10;;;-1.70;99.90;;;;;;5018826;28;20046;-76
2023/01/18 04:27:20;;;;;;;1.67;1.20;;;-1.60;99.90;;;;;;5017850;28;20077;-76
2023/01/18 04:29:50;;;;;;;1.67;0.98;;;-1.60;99.90;;;;;;5019253;28;20056;-76
2023/01/18 04:32:17;;;;;;;1.65;1.02;;;-1.50;99.90;;;;;;5000139;28;20064;-76
2023/01/18 04:34:43;;;;;;;1.23;1.00;;;-1.50;99.90;;;;;;5018718;28;20060;-77
2023/01/18 04:37:10;;;;;;;1.08;0.98;;;-1.50;99.90;;;;;;5012427;28;20138;-77
2023/01/18 04:39:37;;;;;;;1.00;1.00;;;-1.50;99.90;;;;;;5014590;28;20081;-77
2023/01/18 04:42:04;;;;;;;1.48;0.88;;;-1.50;99.90;;;;;;5019355;28;20169;-77
2023/01/18 04:44:31;;;;;;;1.90;1.17;;;-1.50;99.90;;;;;;5019185;28;20049;-76
2023/01/18 04:46:57;;;;;;;1.92;0.80;;;-1.50;99.90;;;;;;5016224;28;20077;-76
2023/01/18 04:49:24;;;;;;;1.48;0.85;;;-1.40;99.90;;;;;;5014314;28;20057;-76
2023/01/18 04:51:51;;;;;;;1.80;0.82;;;-1.40;99.90;;;;;;5017487;28;20156;-77
2023/01/18 04:54:18;;;;;;;1.42;0.95;;;-1.40;99.90;;;;;;5018242;28;20049;-76
2023/01/18 04:56:44;;;;;;;0.75;0.63;;;-1.30;99.90;;;;;;5005705;28;20065;-76
2023/01/18 04:59:15;;;;;;;1.00;0.90;;;-1.30;99.90;;;;;;5017536;28;20052;-77
2023/01/18 05:01:42;;;;;;;2.08;1.00;;;-1.30;99.90;;;;;;5016435;28;20069;-76
2023/01/18 05:04:08;;;;;;;0.80;0.60;;;-1.30;99.90;;;;;;5022406;28;20065;-76
2023/01/18 05:06:35;;;;;;;0.82;0.80;;;-1.20;99.90;;;;;;5015361;28;20405;-77
2023/01/18 05:09:02;;;;;;;0.70;0.70;;;-1.20;99.90;;;;;;5017509;28;20124;-77
2023/01/18 05:11:29;;;;;;;2.05;0.90;;;-1.20;99.90;;;;;;5017468;28;20817;-77
2023/01/18 05:13:55;;;;;;;0.80;0.73;;;-1.10;99.90;;;;;;5021703;28;20156;-77
2023/01/18 05:16:22;;;;;;;1.38;0.80;;;-1.10;99.90;;;;;;5016014;28;20073;-77
2023/01/18 05:18:49;;;;;;;1.20;1.10;;;-1.00;99.90;;;;;;5018153;28;20068;-76
2023/01/18 05:21:16;;;;;;;1.40;1.00;;;-1.00;99.90;;;;;;5015796;28;20057;-77
2023/01/18 05:23:43;;;;;;;1.63;1.10;;;-0.90;99.90;;;;;;5005939;28;20092;-76
2023/01/18 05:26:20;;;;;;;2.33;0.98;;;-0.90;99.90;;;;;;5016109;28;20076;-77
2023/01/18 05:28:47;;;;;;;1.63;1.00;;;-0.90;99.90;;;;;;5016454;28;20133;-77
2023/01/18 05:31:14;;;;;;;1.35;0.98;;;-0.90;99.90;;;;;;5014688;28;20366;-76
2023/01/18 05:33:41;;;;;;;1.02;0.90;;;-0.90;99.90;;;;;;5000025;28;20064;-76
2023/01/18 05:36:08;;;;;;;1.42;0.80;;;-0.80;99.90;;;;;;5021695;28;20046;-76
2023/01/18 05:38:35;;;;;;;1.15;0.98;;;-0.80;99.90;;;;;;5017298;28;20057;-77
2023/01/18 05:41:02;;;;;;;1.55;1.13;;;-0.80;99.90;;;;;;5018460;28;20052;-77
2023/01/18 05:43:29;;;;;;;1.73;1.08;;;-0.80;99.90;;;;;;5020991;28;20381;-78
2023/01/18 05:45:56;;;;;;;1.65;1.13;;;-0.80;99.90;;;;;;5019271;28;20045;-77
2023/01/18 05:48:23;;;;;;;1.77;1.00;;;-0.80;99.90;;;;;;4990583;28;20053;-77
2023/01/18 05:50:50;;;;;;;1.65;1.35;;;-0.80;99.90;;;;;;5016901;28;20113;-77
2023/01/18 05:53:18;;;;;;;1.38;1.23;;;-0.80;99.90;;;;;;5019645;28;20042;-77
2023/01/18 05:55:56;;;;;;;0.82;0.73;;;-0.80;99.90;;;;;;5021522;28;20057;-76
2023/01/18 05:58:23;;;;;;;2.05;1.00;;;-0.90;99.90;;;;;;5018540;28;20047;-76
2023/01/18 06:00:50;;;;;;;1.17;0.95;;;-0.80;99.90;;;;;;5003952;28;20077;-76
2023/01/18 06:03:17;;;;;;;2.92;1.20;;;-0.80;99.90;;;;;;5008800;28;20050;-76
2023/01/18 06:05:44;;;;;;;1.33;0.95;;;-0.80;99.90;;;;;;5018739;28;20566;-77
2023/01/18 06:08:11;;;;;;;0.88;0.75;;;-0.80;99.90;;;;;;5013756;28;20141;-76
2023/01/18 06:10:38;;;;;;;1.50;0.90;;;-0.80;99.90;;;;;;4982064;28;20053;-77
2023/01/18 06:13:05;;;;;;;1.00;0.90;;;-0.80;99.90;;;;;;5028467;28;20049;-76
2023/01/18 06:15:32;;;;;;;1.70;1.00;;;-0.80;99.90;;;;;;4983175;28;20054;-76
2023/01/18 06:17:59;;;;;;;1.42;1.02;;;-0.80;99.90;;;;;;5017541;28;20140;-77
2023/01/18 06:20:29;;;;;;;1.27;0.98;;;-0.80;99.90;;;;;;5014629;28;20058;-77
2023/01/18 06:22:56;;;;;;;1.52;1.00;;;-0.80;99.90;;;;;;4983893;28;20077;-76
2023/01/18 06:25:25;;;;;;;1.08;0.90;;;-0.70;99.90;;;;;;5012858;28;20049;-77
2023/01/18 06:27:51;;;;;;;2.22;1.10;;;-0.70;99.90;;;;;;5010411;28;20046;-77
2023/01/18 06:30:18;;;;;;;3.33;1.00;;;-0.60;99.90;;;;;;5015579;28;20180;-77
2023/01/18 06:32:47;;;;;;;2.33;1.08;;;-0.60;99.90;;;;;;5015061;28;20084;-76
2023/01/18 06:35:14;;;;;;;1.20;0.95;;;-0.60;99.90;;;;;;4997604;28;20069;-76
2023/01/18 06:37:44;;;;;;;1.75;1.15;;;-0.50;99.90;;;;;;5015833;28;20061;-77
2023/01/18 06:40:10;;;;;;;2.50;1.00;;;-0.50;99.90;;;;;;5013392;28;20425;-77
2023/01/18 06:42:37;;;;;;;1.85;1.20;;;-0.50;99.90;;;;;;5020951;28;20060;-76
2023/01/18 06:45:04;;;;;;;0.70;0.70;;;-0.50;99.90;;;;;;4999326;28;20479;-77
2023/01/18 06:47:31;;;;;;;1.02;0.90;;;-0.50;99.90;;;;;;5017521;28;20073;-77
2023/01/18 06:49:58;;;;;;;0.98;0.70;;;-0.50;99.90;;;;;;5017022;28;20409;-76
2023/01/18 06:52:25;;;;;;;1.02;0.80;;;-0.50;99.90;;;;;;5021564;28;20045;-77
2023/01/18 06:54:51;;;;;;;2.17;0.90;;;-0.40;99.90;;;;;;5015962;28;20096;-77
2023/01/18 06:57:18;;;;;;;1.17;0.90;;;-0.40;99.90;;;;;;5014032;28;20075;-76
2023/01/18 06:59:45;;;;;;;1.77;1.10;;;-0.40;99.90;;;;;;5016603;28;20058;-77
2023/01/18 07:02:12;;;;;;;1.30;0.95;;;-0.40;99.90;;;;;;5017450;28;20055;-77
2023/01/18 07:04:42;;;;;;;1.42;0.90;;;-0.40;99.90;;;;;;5010844;28;20662;-76
2023/01/18 07:07:12;;;;;;;1.70;1.10;;;-0.30;99.90;;;;;;5010595;28;20050;-77
2023/01/18 07:09:39;;;;;;;2.97;1.13;;;-0.30;99.90;;;;;;5010306;28;20054;-76
2023/01/18 07:12:06;;;;;;;2.47;1.30;;;-0.20;99.90;;;;;;5013639;28;20119;-76
2023/01/18 07:14:33;;;;;;;2.13;1.38;;;-0.20;99.90;;;;;;5004658;28;20057;-76
2023/01/18 07:17:00;;;;;;;5.45;1.55;;;-0.20;99.90;;;;;;5008708;28;20048;-76
2023/01/18 07:19:26;;;;;;;2.95;1.08;;;-0.20;99.90;;;;;;5012062;28;20061;-76
2023/01/18 07:21:53;;;;;;;1.40;1.02;;;-0.10;99.90;;;;;;5010539;28;20438;-76
2023/01/18 07:24:21;;;;;;;1.58;1.20;;;-0.20;99.90;;;;;;4998119;28;20057;-76
2023/01/18 07:26:47;;;;;;;1.95;1.20;;;-0.10;99.90;;;;;;4989201;28;20105;-76
2023/01/18 07:29:14;;;;;;;1.85;1.17;;;-0.10;99.90;;;;;;5005743;28;20164;-77
2023/01/18 07:31:41;;;;;;;1.85;0.90;;;-0.10;99.90;;;;;;5009005;28;20118;-76
2023/01/18 07:34:08;;;;;;;1.75;1.27;;;-0.10;99.90;;;;;;5011394;28;20046;-76
2023/01/18 07:36:38;;;;;;;1.92;1.02;;;-0.10;99.90;;;;;;4988668;28;20387;-76
2023/01/18 07:39:05;;;;;;;2.95;0.95;;;-0.10;99.90;;;;;;4985328;28;20050;-76
2023/01/18 07:41:32;;;;;;;1.05;0.82;;;-0.10;99.90;;;;;;4991351;28;20046;-76
2023/01/18 07:43:59;;;;;;;1.85;1.25;;;-0.10;99.90;;;;;;4995227;28;20299;-76
2023/01/18 07:46:26;;;;;;;3.00;1.30;;;-0.10;99.90;;;;;;5012866;28;20050;-76
2023/01/18 07:48:53;;;;;;;2.45;1.10;;;-0.10;99.90;;;;;;4980369;28;20061;-76
2023/01/18 07:51:23;;;;;;;1.45;0.90;;;-0.20;99.90;;;;;;4984885;28;20490;-76
2023/01/18 07:53:53;;;;;;;2.17;1.25;;;-0.20;99.90;;;;;;5006709;28;20560;-75
2023/01/18 07:56:21;;;;;;;2.20;1.38;;;-0.20;99.90;;;;;;5006950;28;20042;-75
2023/01/18 07:58:48;;;;;;;3.03;1.10;;;-0.20;99.90;;;;;;4991075;28;20127;-76
2023/01/18 08:01:16;;;;;;;2.30;1.20;;;-0.20;99.90;;;;;;5007195;28;20076;-76
2023/01/18 08:03:44;;;;;;;1.95;1.25;;;-0.30;99.90;;;;;;4990116;28;20426;-76
2023/01/18 08:06:16;;;;;;;2.05;1.30;;;-0.30;99.90;;;;;;5007944;28;20053;-76
2023/01/18 08:08:45;;;;;;;2.08;0.85;;;-0.30;99.90;;;;;;5005765;28;20081;-76
2023/01/18 08:11:12;;;;;;;1.70;0.90;;;-0.30;99.90;;;;;;4995922;28;20137;-77
2023/01/18 08:13:39;;;;;;;1.92;1.30;;;-0.30;99.90;;;;;;5006857;28;20452;-76
2023/01/18 08:16:07;;;;;;;1.25;0.90;;;-0.30;99.90;;;;;;5008339;28;20108;-77
2023/01/18 08:18:33;;;;;;;1.23;0.95;;;-0.20;99.90;;;;;;5004919;28;20191;-77
2023/01/18 08:21:00;;;;;;;1.60;1.20;;;-0.20;99.90;;;;;;4975094;28;20431;-76
2023/01/18 08:23:27;;;;;;;1.73;0.95;;;-0.20;99.90;;;;;;4985496;28;20480;-77
2023/01/18 08:25:54;;;;;;;1.73;1.10;;;-0.10;99.90;;;;;;4983908;28;20049;-76
2023/01/18 08:28:21;;;;;;;1.15;0.77;;;-0.20;99.90;;;;;;4996382;28;20054;-76
2023/01/18 08:30:48;;;;;;;1.05;0.85;;;-0.20;99.90;;;;;;4999629;28;20464;-76
2023/01/18 08:33:15;;;;;;;1.13;0.70;;;-0.20;99.90;;;;;;5012749;28;20071;-78
2023/01/18 08:35:46;;;;;;;1.02;0.77;;;-0.20;99.90;;;;;;5001232;28;20426;-77
2023/01/18 08:38:13;;;;;;;1.27;0.80;;;-0.20;99.90;;;;;;5003506;28;20053;-75
2023/01/18 08:40:40;;;;;;;1.02;0.85;;;-0.20;99.90;;;;;;5006389;28;20069;-75
2023/01/18 08:43:09;;;;;;;1.17;0.85;;;-0.20;99.90;;;;;;5009880;28;20056;-76
2023/01/18 08:45:36;;;;;;;1.30;0.93;;;-0.20;99.90;;;;;;5006584;28;20140;-75
2023/01/18 08:48:05;;;;;;;1.52;0.85;;;-0.20;99.90;;;;;;5009560;28;20062;-75
2023/01/18 08:50:32;;;;;;;1.13;1.00;;;-0.20;99.90;;;;;;4976064;28;20655;-75
2023/01/18 08:52:59;;;;;;;0.60;0.60;;;-0.20;99.90;;;;;;5009032;28;20049;-76
2023/01/18 08:55:28;;;;;;;1.05;0.85;;;-0.20;99.90;;;;;;4993773;28;20045;-76
2023/01/18 08:57:56;;;;;;;1.00;0.80;;;-0.20;99.90;;;;;;4993353;28;20076;-76
2023/01/18 09:00:27;;;;;;;0.93;0.70;;;-0.20;99.90;;;;;;5003056;28;20084;-76
2023/01/18 09:02:54;;;;;;;0.63;0.52;;;-0.10;99.90;;;;;;4985496;28;20167;-76
2023/01/18 09:05:21;;;;;;;1.15;0.80;;;-0.10;99.90;;;;;;5000569;28;20058;-76
2023/01/18 09:07:49;;;;;;;1.33;1.10;;;-0.10;99.90;;;;;;4980405;28;20050;-75
2023/01/18 09:10:17;;;;;;;1.90;1.00;;;0.00;99.90;;;;;;4983172;28;20156;-76
2023/01/18 09:12:44;;;;;;;1.15;0.90;;;0.00;99.90;;;;;;5013734;28;20050;-76
2023/01/18 09:15:11;;;;;;;2.78;1.10;;;0.00;99.90;;;;;;4997329;28;20077;-76
2023/01/18 09:17:40;;;;;;;1.20;1.08;;;0.10;99.90;;;;;;5010760;28;20053;-76
2023/01/18 09:20:09;;;;;;;1.20;1.02;;;0.20;99.90;;;;;;4991323;28;20224;-75
2023/01/18 09:22:36;;;;;;;0.90;0.80;;;0.20;99.90;;;;;;5011177;28;20130;-76
2023/01/18 09:25:04;;;;;;;1.85;1.35;;;0.20;99.90;;;;;;5010433;28;20050;-76
2023/01/18 09:27:31;;;;;;;1.48;1.30;;;0.30;99.90;;;;;;5008026;28;20069;-75
2023/01/18 09:29:58;;;;;;;1.73;1.40;;;0.30;99.90;;;;;;5012660;28;20064;-76
2023/01/18 09:32:26;;;;;;;2.53;1.45;;;0.40;99.90;;;;;;5013517;28;20509;-76
2023/01/18 09:34:53;;;;;;;2.65;1.60;;;0.50;99.90;;;;;;4997349;28;20397;-76
2023/01/18 09:37:20;;;;;;;2.70;1.45;;;0.60;99.90;;;;;;5008743;28;20329;-76
2023/01/18 09:39:47;;;;;;;3.13;1.42;;;0.60;99.90;;;;;;5012891;28;20050;-75
2023/01/18 09:42:22;;;;;;;2.58;1.27;;;0.70;99.90;;;;;;5011939;28;20053;-76
2023/01/18 09:44:51;;;;;;;3.30;1.55;;;0.70;99.90;;;;;;5013027;28;20524;-76
2023/01/18 09:47:28;;;;;;;2.10;1.30;;;0.80;99.90;;;;;;5012984;28;20053;-78
2023/01/18 09:49:56;;;;;;;2.90;1.50;;;0.90;99.90;;;;;;5015326;28;20077;-76
2023/01/18 09:52:42;;;;;;;2.40;1.42;;;1.00;99.90;;;;;;4995613;28;20412;-78
2023/01/18 09:55:27;;;;;;;2.72;1.63;;;1.00;99.90;;;;;;5009005;28;20049;-78
2023/01/18 09:58:26;;;;;;;2.97;1.73;;;1.00;99.90;;;;;;5011082;28;20376;-78
2023/01/18 10:00:54;;;;;;;3.35;2.20;;;1.10;99.90;;;;;;5011962;28;20135;-78
2023/01/18 10:03:25;;;;;;;4.85;2.45;;;1.20;99.90;;;;;;5022970;28;20060;-78
2023/01/18 10:06:07;;;;;;;2.63;1.65;;;1.30;99.90;;;;;;4989701;28;20312;-77
2023/01/18 10:08:57;;;;;;;2.42;1.83;;;1.30;99.90;;;;;;5009200;28;20073;-78
2023/01/18 10:11:46;;;;;;;3.30;1.95;;;1.40;99.90;;;;;;5011412;28;20088;-77
2023/01/18 10:14:27;;;;;;;3.25;1.80;;;1.40;99.90;;;;;;5000122;28;20050;-76
2023/01/18 10:16:56;;;;;;;1.27;1.10;;;1.50;99.90;;;;;;4999165;28;20178;-76
2023/01/18 10:19:29;;;;;;;2.83;1.60;;;1.50;99.90;;;;;;5010730;28;20332;-76
2023/01/18 10:22:15;;;;;;;2.90;1.85;;;1.60;99.90;;;;;;5009867;28;20140;-76
2023/01/18 10:24:56;;;;;;;4.50;1.70;;;1.70;99.90;;;;;;4997833;28;20076;-76
2023/01/18 10:27:38;;;;;;;2.67;1.50;;;1.70;99.90;;;;;;5010749;28;20053;-76
2023/01/18 10:30:13;;;;;;;2.47;1.83;;;1.80;99.90;;;;;;5014891;28;20054;-78
2023/01/18 10:32:45;;;;;;;4.22;1.50;;;1.80;99.90;;;;;;4994691;28;20544;-78
2023/01/18 10:35:28;;;;;;;4.55;2.10;;;1.90;99.90;;;;;;4998763;28;20377;-77
2023/01/18 10:38:03;;;;;;;4.45;1.90;;;2.00;99.90;;;;;;5010485;28;20136;-77
2023/01/18 10:40:30;;;;;;;5.30;2.28;;;2.00;99.90;;;;;;4997369;28;20061;-78
2023/01/18 10:43:03;;;;;;;3.92;2.13;;;2.00;99.90;;;;;;4999530;28;20138;-77
2023/01/18 10:45:31;;;;;;;2.38;2.00;;;2.00;99.90;;;;;;5012298;28;20596;-76
2023/01/18 10:48:16;;;;;;;6.53;3.20;;;2.10;99.90;;;;;;4999204;28;20061;-77
2023/01/18 10:50:44;;;;;;;2.95;2.08;;;2.10;99.90;;;;;;5012906;28;20586;-77
2023/01/18 10:53:30;;;;;;;3.47;2.03;;;2.10;99.90;;;;;;4992094;28;20193;-75
2023/01/18 10:56:09;;;;;;;2.53;2.00;;;2.20;99.90;;;;;;5013724;28;20050;-77
2023/01/18 10:58:57;;;;;;;2.60;1.70;;;2.20;99.90;;;;;;5010470;28;20054;-77
2023/01/18 11:01:35;;;;;;;3.63;1.83;;;2.30;99.90;;;;;;4998281;28;20466;-77
2023/01/18 11:04:41;;;;;;;3.35;1.88;;;2.30;99.90;;;;;;4994697;28;20473;-77
2023/01/18 11:07:08;;;;;;;2.28;1.73;;;2.40;99.90;;;;;;4950063;28;20298;-77
2023/01/18 11:09:54;;;;;;;4.15;2.20;;;2.40;99.90;;;;;;4954925;28;20167;-77
2023/01/18 11:12:37;;;;;;;3.05;2.00;;;2.50;99.90;;;;;;4980462;28;20061;-77
2023/01/18 11:15:15;;;;;;;3.25;1.65;;;2.50;99.90;;;;;;4996677;28;20050;-77
2023/01/18 11:18:02;;;;;;;3.60;2.10;;;2.60;99.90;;;;;;5003132;28;20037;-76
2023/01/18 11:20:39;;;;;;;4.18;2.33;;;2.60;99.90;;;;;;5007333;28;20436;-76
2023/01/18 11:23:29;;;;;;;3.35;2.00;;;2.60;99.90;;;;;;5011875;28;20151;-76
2023/01/18 11:26:04;;;;;;;3.20;2.33;;;2.60;99.90;;;;;;5009682;28;20057;-74
2023/01/18 11:29:00;;;;;;;2.97;1.92;;;2.70;99.90;;;;;;5008258;28;20063;-75
2023/01/18 11:31:29;;;;;;;3.97;2.33;;;2.70;99.90;;;;;;4990700;28;20412;-74
2023/01/18 11:33:58;;;;;;;3.72;2.45;;;2.80;99.90;;;;;;5010666;28;20053;-74
2023/01/18 11:36:36;;;;;;;4.00;2.35;;;2.90;99.90;;;;;;5009181;28;20100;-74
2023/01/18 11:39:26;;;;;;;3.47;2.28;;;2.90;99.90;;;;;;5016336;28;20172;-77
2023/01/18 11:42:24;;;;;;;2.70;2.00;;;2.90;99.90;;;;;;4996691;28;20125;-74
2023/01/18 11:45:00;;;;;;;3.92;2.67;;;2.90;99.90;;;;;;5004195;28;20057;-75
2023/01/18 11:47:31;;;;;;;4.40;2.92;;;2.90;99.90;;;;;;5009172;28;20065;-75
2023/01/18 11:49:58;;;;;;;4.47;2.53;;;2.90;99.90;;;;;;5009593;28;20056;-74
2023/01/18 11:52:56;;;;;;;3.55;2.10;;;3.00;99.90;;;;;;5085337;27;20742;-75
2023/01/18 11:56:04;;;;;;;3.65;2.38;;;3.10;99.90;;;;;;5032146;28;20106;-76
2023/01/18 11:58:34;;;;;;;3.72;2.67;;;3.20;99.90;;;;;;5046096;28;20380;-75
2023/01/18 12:01:29;;;;;;;2.85;2.17;;;3.20;99.90;;;;;;5052559;28;20064;-75
2023/01/18 12:04:03;;;;;;;4.07;2.63;;;3.30;99.90;;;;;;5058384;28;20051;-75
2023/01/18 12:07:02;;;;;;;4.15;2.75;;;3.30;99.90;;;;;;5065407;28;20053;-75
2023/01/18 12:10:09;;;;;;;5.00;2.47;;;3.30;99.90;;;;;;5069651;28;20048;-75
2023/01/18 12:12:54;;;;;;;4.47;2.70;;;3.40;99.90;;;;;;4991226;28;20045;-76
2023/01/18 12:15:27;;;;;;;3.75;2.30;;;3.50;99.90;;;;;;5009030;28;20057;-78
2023/01/18 12:18:10;;;;;;;3.00;2.28;;;3.60;99.90;;;;;;5045056;28;20636;-77
2023/01/18 12:21:00;;;;;;;2.78;1.95;;;3.70;99.90;;;;;;5044734;28;20056;-77
2023/01/18 12:23:45;;;;;;;3.47;2.13;;;3.80;99.90;;;;;;5037198;28;20061;-78
2023/01/18 12:26:39;;;;;;;5.82;3.17;;;4.00;99.90;;;;;;5068948;28;20558;-77
2023/01/18 12:29:31;;;;;;;3.72;2.20;;;4.00;99.90;;;;;;5056748;28;20164;-77
2023/01/18 12:32:19;;;;;;;3.55;2.30;;;4.20;99.90;;;;;;5051505;28;20270;-77
2023/01/18 12:35:14;;;;;;;1.90;1.55;;;4.40;99.90;;;;;;5068727;28;20052;-79
2023/01/18 12:38:04;;;;;;;2.55;1.67;;;4.60;99.90;;;;;;5070183;28;20092;-77
2023/01/18 12:40:33;;;;;;;2.70;1.60;;;4.70;99.90;;;;;;5049437;28;20055;-77
2023/01/18 12:43:21;;;;;;;2.38;1.40;;;4.90;99.90;;;;;;5068035;28;20079;-77
2023/01/18 12:46:17;;;;;;;1.67;1.55;;;5.00;99.90;;;;;;5066073;28;20880;-77
2023/01/18 12:48:54;;;;;;;2.33;1.40;;;5.10;99.90;;;;;;5014918;28;20132;-78
2023/01/18 12:51:23;;;;;;;2.15;1.48;;;5.30;99.90;;;;;;5018358;28;20167;-78
2023/01/18 12:54:07;;;;;;;2.30;1.88;;;5.50;99.90;;;;;;5016828;28;20056;-77
2023/01/18 12:56:45;;;;;;;2.17;1.77;;;5.70;99.90;;;;;;5031038;28;20055;-77
2023/01/18 12:59:16;;;;;;;2.50;1.65;;;5.80;99.90;;;;;;5028298;28;20051;-77
2023/01/18 13:01:45;;;;;;;2.67;1.45;;;6.00;99.90;;;;;;5032288;28;20365;-77
2023/01/18 13:04:15;;;;;;;3.47;1.92;;;6.00;99.90;;;;;;5018024;28;20064;-77
2023/01/18 13:06:42;;;;;;;2.80;1.52;;;6.20;99.90;;;;;;5023307;28;20067;-77
2023/01/18 13:09:12;;;;;;;1.73;1.40;;;6.20;99.90;;;;;;5019610;28;20558;-77
2023/01/18 13:11:40;;;;;;;2.08;1.50;;;6.40;99.90;;;;;;5025875;28;20882;-77
2023/01/18 13:14:26;;;;;;;3.53;1.70;;;6.30;99.90;;;;;;5009643;28;20143;-77
2023/01/18 13:17:13;;;;;;;3.28;1.60;;;6.00;99.90;;;;;;5015968;28;20049;-77
2023/01/18 13:20:00;;;;;;;2.10;1.40;;;5.80;99.90;;;;;;5035391;28;20064;-77
2023/01/18 13:22:38;;;;;;;2.17;1.55;;;5.60;99.90;;;;;;5021607;28;20061;-77
2023/01/18 13:25:17;;;;;;;2.15;1.27;;;5.60;99.90;;;;;;5015775;28;20037;-77
2023/01/18 13:28:04;;;;;;;2.30;1.23;;;6.00;99.90;;;;;;5019069;28;20071;-77
2023/01/18 13:30:33;;;;;;;3.15;1.33;;;6.20;99.90;;;;;;5018396;28;20099;-77
2023/01/18 13:33:12;;;;;;;2.33;1.27;;;6.30;99.90;;;;;;5008602;28;20818;-77
2023/01/18 13:35:47;;;;;;;4.38;1.70;;;6.00;99.90;;;;;;4998409;28;20124;-78
2023/01/18 13:38:17;;;;;;;2.70;1.55;;;5.80;99.90;;;;;;5005138;28;20056;-79
2023/01/18 13:41:07;;;;;;;2.20;1.20;;;5.70;99.90;;;;;;4999729;28;20472;-77
2023/01/18 13:43:36;;;;;;;4.10;1.75;;;5.60;99.90;;;;;;5017775;28;20172;-77
2023/01/18 13:46:06;;;;;;;3.03;1.90;;;5.60;99.90;;;;;;5034463;28;20369;-77